createdAt,value
2024-03-06T00:02:23.583Z,13.38
2024-03-06T00:04:50.551Z,13.77
2024-03-06T00:07:17.689Z,13.73
2024-03-06T00:09:44.471Z,13.63
2024-03-06T00:12:11.645Z,13.05
2024-03-06T00:14:38.981Z,13.60
2024-03-06T00:17:07.134Z,13.85
2024-03-06T00:19:34.054Z,13.95
2024-03-06T00:22:02.376Z,13.70
2024-03-06T00:24:29.465Z,13.75
2024-03-06T00:26:56.449Z,12.98
2024-03-06T00:29:23.285Z,12.77
2024-03-06T00:31:50.303Z,13.35
2024-03-06T00:34:17.290Z,14.52
2024-03-06T00:36:44.792Z,13.75
2024-03-06T00:39:15.392Z,12.82
2024-03-06T00:41:43.043Z,12.85
2024-03-06T00:44:09.719Z,12.90
2024-03-06T00:46:36.481Z,13.32
2024-03-06T00:49:03.655Z,13.40
2024-03-06T00:51:37.228Z,12.73
2024-03-06T00:54:10.967Z,13.20
2024-03-06T00:56:40.893Z,13.27
2024-03-06T00:59:08.399Z,13.50
2024-03-06T01:01:35.528Z,14.05
2024-03-06T01:04:03.290Z,14.75
2024-03-06T01:06:30.018Z,13.93
2024-03-06T01:08:58.130Z,13.00
2024-03-06T01:11:25.621Z,13.73
2024-03-06T01:13:52.300Z,13.10
2024-03-06T01:16:19.249Z,13.65
2024-03-06T01:18:45.929Z,13.18
2024-03-06T01:21:12.642Z,14.23
2024-03-06T01:23:39.422Z,13.60
2024-03-06T01:26:06.105Z,13.93
2024-03-06T01:28:32.883Z,14.15
2024-03-06T01:31:00.178Z,12.82
2024-03-06T01:33:27.834Z,14.40
2024-03-06T01:35:54.800Z,14.65
2024-03-06T01:38:21.616Z,13.90
2024-03-06T01:40:48.333Z,14.15
2024-03-06T01:43:23.238Z,13.75
2024-03-06T01:45:51.677Z,13.73
2024-03-06T01:48:21.411Z,13.60
2024-03-06T01:50:48.298Z,13.77
2024-03-06T01:53:17.842Z,14.18
2024-03-06T01:55:44.509Z,13.68
2024-03-06T01:58:11.564Z,13.57
2024-03-06T02:00:38.674Z,13.50
2024-03-06T02:03:05.484Z,13.88
2024-03-06T02:05:33.269Z,13.25
2024-03-06T02:08:03.637Z,13.13
2024-03-06T02:10:31.075Z,12.63
2024-03-06T02:12:59.074Z,13.57
2024-03-06T02:15:25.710Z,13.50
2024-03-06T02:17:53.385Z,13.65
2024-03-06T02:20:26.595Z,13.32
2024-03-06T02:22:53.340Z,13.13
2024-03-06T02:25:21.126Z,13.75
2024-03-06T02:27:49.384Z,14.40
2024-03-06T02:30:16.530Z,12.75
2024-03-06T02:32:44.789Z,12.80
2024-03-06T02:35:12.090Z,12.75
2024-03-06T02:37:39.652Z,12.07
2024-03-06T02:40:08.347Z,11.40
2024-03-06T02:42:34.887Z,11.95
2024-03-06T02:45:01.398Z,13.02
2024-03-06T02:47:27.889Z,12.40
2024-03-06T02:49:54.469Z,12.73
2024-03-06T02:52:21.088Z,12.50
2024-03-06T02:54:47.648Z,12.40
2024-03-06T02:57:14.119Z,12.20
2024-03-06T02:59:41.578Z,11.63
2024-03-06T03:02:08.781Z,12.57
2024-03-06T03:04:35.452Z,11.95
2024-03-06T03:07:01.911Z,11.98
2024-03-06T03:09:29.102Z,13.45
2024-03-06T03:11:56.066Z,12.10
2024-03-06T03:14:22.783Z,12.90
2024-03-06T03:16:49.697Z,12.63
2024-03-06T03:19:17.346Z,12.48
2024-03-06T03:21:47.069Z,13.10
2024-03-06T03:24:13.613Z,12.43
2024-03-06T03:26:40.080Z,12.65
2024-03-06T03:29:06.644Z,12.80
2024-03-06T03:31:34.311Z,12.90
2024-03-06T03:34:00.832Z,12.50
2024-03-06T03:36:27.409Z,12.95
2024-03-06T03:38:54.072Z,12.10
2024-03-06T03:41:20.845Z,13.63
2024-03-06T03:43:47.517Z,13.02
2024-03-06T03:46:14.744Z,12.75
2024-03-06T03:48:41.298Z,13.70
2024-03-06T03:51:08.127Z,13.30
2024-03-06T03:53:35.342Z,12.18
2024-03-06T03:56:02.680Z,12.63
2024-03-06T03:58:29.247Z,12.70
2024-03-06T04:00:56.853Z,12.90
2024-03-06T04:03:23.740Z,11.73
2024-03-06T04:05:50.873Z,13.25
2024-03-06T04:08:17.447Z,13.32
2024-03-06T04:10:47.352Z,13.10
2024-03-06T04:13:16.083Z,12.95
2024-03-06T04:15:42.711Z,12.60
2024-03-06T04:18:09.364Z,13.75
2024-03-06T04:20:35.838Z,13.25
2024-03-06T04:23:03.038Z,12.68
2024-03-06T04:25:29.601Z,12.77
2024-03-06T04:27:56.868Z,13.75
2024-03-06T04:30:23.634Z,12.95
2024-03-06T04:32:50.316Z,12.30
2024-03-06T04:35:17.212Z,12.88
2024-03-06T04:37:45.329Z,11.88
2024-03-06T04:40:12.470Z,12.40
2024-03-06T04:42:39.050Z,11.80
2024-03-06T04:45:26.583Z,12.55
2024-03-06T04:47:53.305Z,12.13
2024-03-06T04:50:19.969Z,11.98
2024-03-06T04:52:46.865Z,11.30
2024-03-06T04:55:13.964Z,11.50
2024-03-06T04:57:44.590Z,11.68
2024-03-06T05:00:12.433Z,10.93
2024-03-06T06:00:19.293Z,8.70
2024-03-06T06:02:47.121Z,12.52
2024-03-06T06:07:45.529Z,12.77
2024-03-06T06:10:12.389Z,13.50
2024-03-06T06:12:38.901Z,13.07
2024-03-06T06:15:06.108Z,12.00
2024-03-06T06:17:32.734Z,12.48
2024-03-06T06:19:59.396Z,12.95
2024-03-06T06:22:28.645Z,11.68
2024-03-06T06:24:56.754Z,12.55
2024-03-06T06:27:23.345Z,11.60
2024-03-06T06:29:49.853Z,11.45
2024-03-06T06:32:16.543Z,11.50
2024-03-06T06:34:43.078Z,11.15
2024-03-06T06:37:09.556Z,11.98
2024-03-06T06:39:36.103Z,11.63
2024-03-06T06:42:04.284Z,10.80
2024-03-06T06:44:31.003Z,11.05
2024-03-06T06:46:57.848Z,11.15
2024-03-06T06:49:24.989Z,11.73
2024-03-06T06:51:51.714Z,11.48
2024-03-06T06:54:18.360Z,12.00
2024-03-06T06:56:44.922Z,11.85
2024-03-06T06:59:11.956Z,11.70
2024-03-06T07:01:38.452Z,12.30
2024-03-06T07:04:05.069Z,11.10
2024-03-06T07:06:31.532Z,11.48
2024-03-06T07:08:58.004Z,11.50
2024-03-06T07:11:25.235Z,11.40
2024-03-06T07:13:52.366Z,11.35
2024-03-06T07:16:18.933Z,11.25
2024-03-06T07:18:45.423Z,11.20
2024-03-06T07:21:11.974Z,11.13
2024-03-06T07:23:38.546Z,10.68
2024-03-06T07:26:06.271Z,11.13
2024-03-06T07:28:33.924Z,10.40
2024-03-06T07:31:00.368Z,10.85
2024-03-06T07:33:27.005Z,9.75
2024-03-06T07:35:53.841Z,9.68
2024-03-06T07:38:21.892Z,10.18
2024-03-06T07:40:48.567Z,9.10
2024-03-06T07:43:15.751Z,8.90
2024-03-06T07:45:42.689Z,9.93
2024-03-06T07:48:10.993Z,9.32
2024-03-06T07:50:37.774Z,10.13
2024-03-06T07:53:04.485Z,10.18
2024-03-06T07:55:31.046Z,10.00
2024-03-06T07:57:57.793Z,10.07
2024-03-06T08:00:24.677Z,9.90
2024-03-06T08:02:51.594Z,9.10
2024-03-06T08:05:19.118Z,9.85
2024-03-06T08:07:47.065Z,9.68
2024-03-06T08:10:14.629Z,8.77
2024-03-06T08:12:44.859Z,10.00
2024-03-06T08:15:13.230Z,10.15
2024-03-06T08:17:43.349Z,10.45
2024-03-06T08:20:11.194Z,10.10
2024-03-06T08:22:40.621Z,9.13
2024-03-06T08:25:11.579Z,10.98
2024-03-06T08:27:40.156Z,10.40
2024-03-06T08:30:08.306Z,10.15
2024-03-06T08:32:36.710Z,9.32
2024-03-06T08:35:07.107Z,9.50
2024-03-06T08:37:35.154Z,10.70
2024-03-06T08:40:02.459Z,9.85
2024-03-06T08:42:30.438Z,10.57
2024-03-06T08:44:57.813Z,10.60
2024-03-06T08:47:24.617Z,9.82
2024-03-06T08:49:51.314Z,10.20
2024-03-06T08:52:18.006Z,11.18
2024-03-06T08:54:44.858Z,10.00
2024-03-06T08:57:12.546Z,10.48
2024-03-06T08:59:39.181Z,10.50
2024-03-06T09:02:17.582Z,10.13
2024-03-06T09:04:44.505Z,10.18
2024-03-06T09:07:11.756Z,10.25
2024-03-06T09:09:39.317Z,10.27
2024-03-06T09:12:07.287Z,10.40
2024-03-06T09:14:34.985Z,10.93
2024-03-06T09:17:02.293Z,10.70
2024-03-06T09:19:29.740Z,10.18
2024-03-06T09:21:56.268Z,11.23
2024-03-06T09:24:26.283Z,11.20
2024-03-06T09:26:53.982Z,12.23
2024-03-06T09:29:21.208Z,11.45
2024-03-06T09:31:51.170Z,11.57
2024-03-06T09:34:17.723Z,11.70
2024-03-06T09:36:49.094Z,13.23
2024-03-06T09:39:26.059Z,12.57
2024-03-06T09:41:54.662Z,12.90
2024-03-06T09:44:22.437Z,14.23
2024-03-06T09:46:50.374Z,12.70
2024-03-06T09:49:20.355Z,12.88
2024-03-06T09:51:48.564Z,12.60
2024-03-06T09:54:18.740Z,13.15
2024-03-06T09:56:48.030Z,14.25
2024-03-06T09:59:15.649Z,13.73
2024-03-06T10:01:55.475Z,13.85
2024-03-06T10:04:26.035Z,13.52
2024-03-06T10:06:57.479Z,13.88
2024-03-06T10:09:24.669Z,13.77
2024-03-06T10:11:55.278Z,16.00
2024-03-06T10:14:22.154Z,14.75
2024-03-06T10:16:59.428Z,15.18
2024-03-06T10:19:31.182Z,15.93
2024-03-06T10:21:58.558Z,16.73
2024-03-06T10:24:29.478Z,15.60
2024-03-06T10:26:59.283Z,16.48
2024-03-06T10:29:27.742Z,15.73
2024-03-06T10:31:59.096Z,15.35
2024-03-06T10:34:27.343Z,15.52
2024-03-06T10:37:04.962Z,16.65
2024-03-06T10:39:40.139Z,15.27
2024-03-06T10:42:08.235Z,15.20
2024-03-06T10:44:35.929Z,16.77
2024-03-06T10:47:04.933Z,15.52
2024-03-06T10:49:33.279Z,16.38
2024-03-06T10:52:01.138Z,16.23
2024-03-06T10:54:29.944Z,15.85
2024-03-06T10:56:57.404Z,15.52
2024-03-06T10:59:28.855Z,15.82
2024-03-06T11:02:03.128Z,15.10
2024-03-06T11:04:35.113Z,15.88
2024-03-06T11:07:03.689Z,15.73
2024-03-06T11:09:36.186Z,14.73
2024-03-06T11:12:03.652Z,15.20
2024-03-06T11:14:32.559Z,14.32
2024-03-06T11:17:06.524Z,14.85
2024-03-06T11:19:53.961Z,14.55
2024-03-06T11:23:09.712Z,14.80
2024-03-06T11:25:52.200Z,14.65
2024-03-06T11:28:23.839Z,14.20
2024-03-06T11:31:07.413Z,14.43
2024-03-06T11:33:45.669Z,14.48
2024-03-06T11:36:19.438Z,14.48
2024-03-06T11:39:08.373Z,14.75
2024-03-06T11:41:38.078Z,15.27
2024-03-06T11:44:07.579Z,15.30
2024-03-06T11:46:50.865Z,13.65
2024-03-06T11:49:21.682Z,13.50
2024-03-06T11:51:54.894Z,14.77
2024-03-06T11:54:25.338Z,16.15
2024-03-06T11:56:54.839Z,15.32
2024-03-06T11:59:29.697Z,14.35
2024-03-06T12:01:57.658Z,14.25
2024-03-06T12:04:25.417Z,14.88
2024-03-06T12:06:52.255Z,14.30
2024-03-06T12:09:19.383Z,13.38
2024-03-06T12:11:46.366Z,13.95
2024-03-06T12:14:18.877Z,14.15
2024-03-06T12:16:55.500Z,13.73
2024-03-06T12:19:23.318Z,14.32
2024-03-06T12:21:49.930Z,14.45
2024-03-06T12:24:21.019Z,14.32
2024-03-06T12:26:49.573Z,14.23
2024-03-06T12:29:22.213Z,13.52
2024-03-06T12:31:48.791Z,13.75
2024-03-06T12:34:18.709Z,13.75
2024-03-06T12:36:45.886Z,13.20
2024-03-06T12:39:19.199Z,15.30
2024-03-06T12:41:46.610Z,14.52
2024-03-06T12:44:13.289Z,14.02
2024-03-06T12:46:40.141Z,14.52
2024-03-06T12:49:06.646Z,14.05
2024-03-06T12:51:33.802Z,13.57
2024-03-06T12:54:02.246Z,14.38
2024-03-06T12:56:28.811Z,13.20
2024-03-06T12:58:55.342Z,14.45
2024-03-06T13:01:21.979Z,13.95
2024-03-06T13:03:48.608Z,15.18
2024-03-06T13:06:15.249Z,13.80
2024-03-06T13:08:42.387Z,14.38
2024-03-06T13:11:10.675Z,13.27
2024-03-06T13:13:37.378Z,13.95
2024-03-06T13:16:06.697Z,13.95
2024-03-06T13:18:35.155Z,13.38
2024-03-06T13:21:02.931Z,14.25
2024-03-06T13:23:29.606Z,13.55
2024-03-06T13:25:56.221Z,13.18
2024-03-06T13:28:22.685Z,13.95
2024-03-06T13:30:49.274Z,13.55
2024-03-06T13:33:15.976Z,12.73
2024-03-06T13:35:43.744Z,12.98
2024-03-06T13:38:10.282Z,13.15
2024-03-06T13:40:36.847Z,12.93
2024-03-06T13:43:03.328Z,13.88
2024-03-06T13:45:29.884Z,13.93
2024-03-06T13:47:56.598Z,14.02
2024-03-06T13:50:24.862Z,13.65
2024-03-06T13:52:51.622Z,13.32
2024-03-06T13:55:18.355Z,14.13
2024-03-06T13:57:44.876Z,13.77
2024-03-06T14:00:18.100Z,13.93
2024-03-06T14:02:48.683Z,13.02
2024-03-06T14:05:18.189Z,13.05
2024-03-06T14:07:44.933Z,12.82
2024-03-06T14:10:12.453Z,13.48
2024-03-06T14:12:39.681Z,12.95
2024-03-06T14:15:13.805Z,12.40
2024-03-06T14:17:40.960Z,13.35
2024-03-06T14:20:07.820Z,13.75
2024-03-06T14:22:34.393Z,13.23
2024-03-06T14:25:00.920Z,13.15
2024-03-06T14:27:27.400Z,13.98
2024-03-06T14:29:55.302Z,13.00
2024-03-06T14:32:22.642Z,13.43
2024-03-06T14:34:49.396Z,12.52
2024-03-06T14:37:15.966Z,12.02
2024-03-06T14:39:42.443Z,12.10
2024-03-06T14:42:08.963Z,12.48
2024-03-06T14:44:35.642Z,12.98
2024-03-06T14:47:02.213Z,12.68
2024-03-06T14:49:28.810Z,12.55
2024-03-06T14:51:56.582Z,12.10
2024-03-06T14:54:26.766Z,12.60
2024-03-06T14:56:54.199Z,12.20
2024-03-06T14:59:22.551Z,11.93
2024-03-06T15:01:49.762Z,12.25
2024-03-06T15:04:16.342Z,12.82
2024-03-06T15:06:44.397Z,12.50
2024-03-06T15:09:13.090Z,12.70
2024-03-06T15:11:42.988Z,11.88
2024-03-06T15:14:09.752Z,11.50
2024-03-06T15:16:38.495Z,11.45
2024-03-06T15:19:05.166Z,11.15
2024-03-06T15:21:35.210Z,11.45
2024-03-06T15:24:04.643Z,10.32
2024-03-06T15:26:32.686Z,10.98
2024-03-06T15:29:00.388Z,9.80
2024-03-06T15:31:26.901Z,11.02
2024-03-06T15:33:53.592Z,9.80
2024-03-06T15:36:20.168Z,10.00
2024-03-06T15:38:46.816Z,10.18
2024-03-06T15:41:13.832Z,10.38
2024-03-06T15:43:40.421Z,11.05
2024-03-06T15:46:07.519Z,10.40
2024-03-06T15:48:35.109Z,9.77
2024-03-06T15:51:01.848Z,10.65
2024-03-06T15:53:32.830Z,11.70
2024-03-06T15:55:59.440Z,10.20
2024-03-06T15:58:26.085Z,10.77
2024-03-06T16:00:56.727Z,10.25
2024-03-06T16:03:26.173Z,9.52
2024-03-06T16:05:58.784Z,10.27
2024-03-06T16:08:30.480Z,10.20
2024-03-06T16:10:58.565Z,9.95
2024-03-06T16:13:25.107Z,9.65
2024-03-06T16:15:51.793Z,9.43
2024-03-06T16:18:18.587Z,9.18
2024-03-06T16:20:46.141Z,9.20
2024-03-06T16:23:12.844Z,10.40
2024-03-06T16:25:39.427Z,9.32
2024-03-06T16:28:07.741Z,9.32
2024-03-06T16:30:34.576Z,9.43
2024-03-06T16:33:02.304Z,9.35
2024-03-06T16:35:29.316Z,9.63
2024-03-06T16:37:56.878Z,9.43
2024-03-06T16:40:24.118Z,9.88
2024-03-06T16:42:50.631Z,9.32
2024-03-06T16:45:17.203Z,8.52
2024-03-06T16:47:43.855Z,8.73
2024-03-06T16:50:10.853Z,9.60
2024-03-06T16:52:37.370Z,8.95
2024-03-06T16:55:04.585Z,8.68
2024-03-06T16:57:32.119Z,9.13
2024-03-06T16:59:58.790Z,10.20
2024-03-06T17:02:25.373Z,9.10
2024-03-06T17:04:51.875Z,9.30
2024-03-06T17:07:18.383Z,8.75
2024-03-06T17:09:44.837Z,8.38
2024-03-06T17:12:11.450Z,9.15
2024-03-06T17:14:38.083Z,8.00
2024-03-06T17:17:04.902Z,7.82
2024-03-06T17:19:31.377Z,8.45
2024-03-06T17:21:58.096Z,8.73
2024-03-06T17:24:24.607Z,8.10
2024-03-06T17:26:51.246Z,7.88
2024-03-06T17:29:18.164Z,8.90
2024-03-06T17:31:45.039Z,8.30
2024-03-06T17:34:11.485Z,9.07
2024-03-06T17:36:39.337Z,8.63
2024-03-06T17:39:09.858Z,7.85
2024-03-06T17:41:36.663Z,9.00
2024-03-06T17:44:05.223Z,8.38
2024-03-06T17:46:32.682Z,7.93
2024-03-06T17:48:59.788Z,8.50
2024-03-06T17:51:33.498Z,8.00
2024-03-06T17:53:59.971Z,9.10
2024-03-06T17:56:26.678Z,7.95
2024-03-06T17:58:53.971Z,8.45
2024-03-06T18:01:25.087Z,8.20
2024-03-06T18:03:53.085Z,7.82
2024-03-06T18:06:19.636Z,7.82
2024-03-06T18:08:46.294Z,8.13
2024-03-06T18:11:13.002Z,8.30
2024-03-06T18:13:40.556Z,7.63
2024-03-06T18:16:12.546Z,8.02
2024-03-06T18:18:39.353Z,8.15
2024-03-06T18:21:07.058Z,8.07
2024-03-06T18:23:33.616Z,7.25
2024-03-06T18:26:00.506Z,8.00
2024-03-06T18:28:27.774Z,7.20
2024-03-06T18:30:54.466Z,7.35
2024-03-06T18:33:21.525Z,7.65
2024-03-06T18:35:48.213Z,7.30
2024-03-06T18:38:14.884Z,7.72
2024-03-06T18:40:41.501Z,7.65
2024-03-06T18:43:08.024Z,7.72
2024-03-06T18:45:34.601Z,8.00
2024-03-06T18:48:03.211Z,8.20
2024-03-06T18:50:32.726Z,7.53
2024-03-06T18:52:59.856Z,7.47
2024-03-06T18:55:27.536Z,7.80
2024-03-06T18:57:54.134Z,7.22
2024-03-06T19:00:21.907Z,7.85
2024-03-06T19:02:50.949Z,7.68
2024-03-06T19:05:18.089Z,7.40
2024-03-06T19:07:45.487Z,7.25
2024-03-06T19:10:12.691Z,7.82
2024-03-06T19:12:39.184Z,8.27
2024-03-06T19:15:07.739Z,7.28
2024-03-06T19:17:35.740Z,7.70
2024-03-06T19:20:02.431Z,7.82
2024-03-06T19:22:28.923Z,8.02
2024-03-06T19:24:55.440Z,8.15
2024-03-06T19:27:23.693Z,8.25
2024-03-06T19:29:53.202Z,8.73
2024-03-06T19:32:19.685Z,8.55
2024-03-06T19:34:46.275Z,8.77
2024-03-06T19:37:12.721Z,8.68
2024-03-06T19:39:39.250Z,8.40
2024-03-06T19:42:10.220Z,8.50
2024-03-06T19:44:36.868Z,9.13
2024-03-06T19:47:05.079Z,9.70
2024-03-06T19:49:31.632Z,9.15
2024-03-06T19:51:58.216Z,9.45
2024-03-06T19:54:24.809Z,9.82
2024-03-06T19:56:52.678Z,10.48
2024-03-06T19:59:19.372Z,9.23
2024-03-06T20:01:45.973Z,9.65
2024-03-06T20:04:12.553Z,9.88
2024-03-06T20:06:39.086Z,9.73
2024-03-06T20:09:06.310Z,9.43
2024-03-06T20:11:32.868Z,9.80
2024-03-06T20:13:59.513Z,10.45
2024-03-06T20:16:27.102Z,9.90
2024-03-06T20:18:53.694Z,10.10
2024-03-06T20:21:22.261Z,11.30
2024-03-06T20:23:49.884Z,9.75
2024-03-06T20:26:16.519Z,10.73
2024-03-06T20:28:44.986Z,10.48
2024-03-06T20:31:11.545Z,10.52
2024-03-06T20:33:38.120Z,9.77
2024-03-06T20:36:06.234Z,10.13
2024-03-06T20:38:34.026Z,10.60
2024-03-06T20:41:00.615Z,10.50
2024-03-06T20:43:27.302Z,11.23
2024-03-06T20:45:55.711Z,10.82
2024-03-06T20:48:26.818Z,10.38
2024-03-06T20:50:53.500Z,10.35
2024-03-06T20:53:20.612Z,10.43
2024-03-06T20:55:48.173Z,10.93
2024-03-06T20:58:15.045Z,10.60
2024-03-06T21:00:41.731Z,11.38
2024-03-06T21:03:09.521Z,10.73
2024-03-06T21:05:36.231Z,10.35
2024-03-06T21:08:02.882Z,11.63
2024-03-06T21:10:29.997Z,11.02
2024-03-06T21:12:56.628Z,11.80
2024-03-06T21:15:25.554Z,11.77
2024-03-06T21:17:52.251Z,12.25
2024-03-06T21:20:19.016Z,11.82
2024-03-06T21:22:46.118Z,12.80
2024-03-06T21:25:13.773Z,12.25
2024-03-06T21:27:40.875Z,12.32
2024-03-06T21:30:09.294Z,11.77
2024-03-06T21:32:36.945Z,13.07
2024-03-06T21:35:04.122Z,12.30
2024-03-06T21:37:34.179Z,13.52
2024-03-06T21:40:00.882Z,12.98
2024-03-06T21:42:27.434Z,13.20
2024-03-06T21:44:54.371Z,13.45
2024-03-06T21:47:22.320Z,13.25
2024-03-06T21:49:50.244Z,13.25
2024-03-06T21:52:16.736Z,13.55
2024-03-06T21:54:43.929Z,14.52
2024-03-06T21:57:13.831Z,13.60
2024-03-06T21:59:40.598Z,15.00
2024-03-06T22:02:08.949Z,15.13
2024-03-06T22:04:35.604Z,15.88
2024-03-06T22:07:02.171Z,16.20
2024-03-06T22:09:28.644Z,14.57
2024-03-06T22:11:55.227Z,16.05
2024-03-06T22:14:21.881Z,17.33
2024-03-06T22:16:48.377Z,15.90
2024-03-06T22:19:15.251Z,16.52
2024-03-06T22:21:42.694Z,17.38
2024-03-06T22:24:09.378Z,17.23
2024-03-06T22:26:35.882Z,17.98
2024-03-06T22:29:04.972Z,18.33
2024-03-06T22:31:31.413Z,18.63
2024-03-06T22:33:58.033Z,17.42
2024-03-06T22:36:24.834Z,17.85
2024-03-06T22:38:51.485Z,18.38
2024-03-06T22:41:22.118Z,18.50
2024-03-06T22:43:49.482Z,17.88
2024-03-06T22:46:16.361Z,17.85
2024-03-06T22:48:46.506Z,18.20
2024-03-06T22:51:13.063Z,17.58
2024-03-06T22:53:39.913Z,19.63
2024-03-06T22:56:07.137Z,18.80
2024-03-06T22:58:33.812Z,18.83
2024-03-06T23:01:00.310Z,19.13
2024-03-06T23:03:27.100Z,18.98
2024-03-06T23:05:54.229Z,18.48
2024-03-06T23:08:20.881Z,19.10
2024-03-06T23:10:47.404Z,19.45
2024-03-06T23:13:15.927Z,18.75
2024-03-06T23:15:43.551Z,19.27
2024-03-06T23:18:13.838Z,20.08
2024-03-06T23:20:40.445Z,19.83
2024-03-06T23:23:07.544Z,20.52
2024-03-06T23:25:34.314Z,20.65
2024-03-06T23:28:02.365Z,22.63
2024-03-06T23:30:29.016Z,21.17
2024-03-06T23:32:56.375Z,21.30
2024-03-06T23:35:23.210Z,20.80
2024-03-06T23:37:50.319Z,20.42
2024-03-06T23:40:17.077Z,22.80
2024-03-06T23:42:45.462Z,21.42
2024-03-06T23:45:13.021Z,24.23
2024-03-06T23:47:40.530Z,22.95
2024-03-06T23:50:09.008Z,22.98
2024-03-06T23:52:36.689Z,25.35
2024-03-06T23:55:04.932Z,24.60
2024-03-06T23:57:31.383Z,23.00
2024-03-06T23:59:58.717Z,25.27
